createdAt,value
2022-09-15T00:02:10.281Z,59612.94
2022-09-15T00:04:37.023Z,59586.00
2022-09-15T00:07:03.481Z,59741.31
2022-09-15T00:09:32.214Z,59586.00
2022-09-15T00:11:58.686Z,59581.88
2022-09-15T00:14:25.161Z,59550.81
2022-09-15T00:16:51.645Z,59610.88
2022-09-15T00:19:18.135Z,59542.53
2022-09-15T00:21:44.532Z,59681.25
2022-09-15T00:24:10.989Z,59403.81
2022-09-15T00:26:37.907Z,59455.56
2022-09-15T00:29:05.031Z,59310.63
2022-09-15T00:31:32.054Z,59343.75
2022-09-15T00:34:02.666Z,59292.00
2022-09-15T00:36:29.055Z,59258.88
2022-09-15T00:38:56.048Z,59194.69
2022-09-15T00:41:24.486Z,59194.69
2022-09-15T00:44:00.041Z,59211.25
2022-09-15T00:46:33.734Z,59167.78
2022-09-15T00:49:20.326Z,59159.50
2022-09-15T00:52:01.312Z,59122.22
2022-09-15T00:54:36.193Z,59068.41
2022-09-15T00:57:06.273Z,59062.19
2022-09-15T00:59:36.919Z,59058.03
2022-09-15T01:02:08.873Z,59074.59
2022-09-15T01:04:35.318Z,59049.75
2022-09-15T01:07:04.591Z,59035.28
2022-09-15T01:09:41.787Z,59062.19
2022-09-15T01:12:08.279Z,59004.22
2022-09-15T01:14:34.761Z,59105.66
2022-09-15T01:17:35.273Z,59064.25
2022-09-15T01:20:20.366Z,59053.91
2022-09-15T01:22:56.682Z,59012.50
2022-09-15T01:25:55.385Z,59010.44
2022-09-15T01:28:43.954Z,59002.16
2022-09-15T01:31:29.182Z,59035.28
2022-09-15T01:34:03.051Z,58989.72
2022-09-15T01:36:37.984Z,59020.78
2022-09-15T01:39:13.231Z,58975.22
2022-09-15T01:41:55.883Z,58975.22
2022-09-15T01:44:25.543Z,59095.31
2022-09-15T01:46:59.923Z,58973.16
2022-09-15T01:49:29.166Z,58995.94
2022-09-15T01:51:55.828Z,58933.81
2022-09-15T01:54:26.747Z,58973.16
2022-09-15T01:56:53.153Z,59000.06
2022-09-15T01:59:19.560Z,59033.19
2022-09-15T02:01:51.501Z,59163.63
2022-09-15T02:04:45.838Z,59053.91
2022-09-15T02:07:26.271Z,59078.75
2022-09-15T02:09:57.816Z,59093.25
2022-09-15T02:12:42.171Z,59118.09
2022-09-15T02:15:14.926Z,59113.94
2022-09-15T02:17:43.621Z,59190.53
2022-09-15T02:20:42.298Z,59221.59
2022-09-15T02:23:16.057Z,59283.72
2022-09-15T02:25:50.705Z,59263.00
2022-09-15T02:28:19.268Z,59265.09
2022-09-15T02:30:46.629Z,59395.53
2022-09-15T02:33:40.677Z,59325.13
2022-09-15T02:36:08.680Z,59285.78
2022-09-15T02:38:39.020Z,59318.91
2022-09-15T02:41:05.850Z,59298.22
2022-09-15T02:43:33.486Z,59323.06
2022-09-15T02:46:00.195Z,59327.19
2022-09-15T02:48:26.654Z,59333.41
2022-09-15T02:50:53.094Z,59356.19
2022-09-15T02:53:19.612Z,59352.03
2022-09-15T02:55:46.378Z,59354.13
2022-09-15T02:58:12.754Z,59414.16
2022-09-15T03:00:39.155Z,59418.28
2022-09-15T03:03:05.764Z,59459.72
2022-09-15T03:05:32.216Z,59372.75
2022-09-15T03:07:58.673Z,59372.75
2022-09-15T03:10:25.722Z,59459.72
2022-09-15T03:12:53.124Z,59463.84
2022-09-15T03:15:22.313Z,59509.41
2022-09-15T03:17:49.083Z,59513.53
2022-09-15T03:20:17.963Z,59530.09
2022-09-15T03:22:44.496Z,59532.19
2022-09-15T03:25:11.300Z,59532.19
2022-09-15T03:27:38.032Z,59706.13
2022-09-15T03:30:06.358Z,59579.81
2022-09-15T03:32:33.123Z,59559.09
2022-09-15T03:34:59.535Z,59521.81
2022-09-15T03:37:26.210Z,59544.59
2022-09-15T03:39:52.746Z,59496.97
2022-09-15T03:42:19.751Z,59501.13
2022-09-15T03:44:46.303Z,59513.53
2022-09-15T03:47:13.084Z,59532.19
2022-09-15T03:49:39.485Z,59519.75
2022-09-15T03:52:05.879Z,59786.88
2022-09-15T03:54:32.343Z,59567.38
2022-09-15T03:56:58.903Z,59559.09
2022-09-15T03:59:25.326Z,59505.25
2022-09-15T04:01:51.983Z,59579.81
2022-09-15T04:04:18.536Z,59877.97
2022-09-15T04:06:45.047Z,59579.81
2022-09-15T04:09:11.703Z,59579.81
2022-09-15T04:11:39.389Z,59621.22
2022-09-15T04:14:05.843Z,59604.66
2022-09-15T04:16:32.310Z,59786.88
2022-09-15T04:18:58.943Z,59679.19
2022-09-15T04:21:26.678Z,59592.22
2022-09-15T04:23:53.981Z,59621.22
2022-09-15T04:26:31.871Z,59608.78
2022-09-15T04:29:03.647Z,59600.50
2022-09-15T04:31:31.063Z,59644.00
2022-09-15T04:33:57.641Z,59612.94
2022-09-15T04:36:25.793Z,59588.09
2022-09-15T04:38:52.455Z,59592.22
2022-09-15T04:41:19.756Z,59610.88
2022-09-15T04:43:54.177Z,59600.50
2022-09-15T04:46:20.931Z,59604.66
2022-09-15T04:48:48.609Z,59639.84
2022-09-15T04:51:18.091Z,59646.06
2022-09-15T04:53:44.976Z,59650.19
2022-09-15T04:56:23.086Z,59637.78
2022-09-15T04:59:02.688Z,59569.44
2022-09-15T05:01:32.248Z,59629.50
2022-09-15T05:03:58.947Z,59650.19
2022-09-15T05:06:27.134Z,59571.53
2022-09-15T05:08:55.839Z,59633.63
2022-09-15T05:11:23.142Z,59666.78
2022-09-15T05:13:49.650Z,59687.47
2022-09-15T05:16:18.631Z,59662.63
2022-09-15T05:18:46.854Z,59639.84
2022-09-15T05:21:15.283Z,59637.78
2022-09-15T05:23:41.932Z,59633.63
2022-09-15T05:26:12.073Z,59662.63
2022-09-15T05:28:38.569Z,59650.19
2022-09-15T05:31:17.897Z,59656.41
2022-09-15T05:33:45.346Z,59670.91
2022-09-15T05:36:14.163Z,59681.25
2022-09-15T05:38:41.305Z,59693.69
2022-09-15T05:41:10.800Z,59701.97
2022-09-15T05:43:38.010Z,59699.91
2022-09-15T05:46:05.163Z,59693.69
2022-09-15T05:48:31.700Z,59743.38
2022-09-15T05:50:58.724Z,59722.69
2022-09-15T05:53:25.931Z,59776.50
2022-09-15T05:56:00.085Z,59772.38
2022-09-15T05:58:27.504Z,59801.38
2022-09-15T06:00:54.263Z,59791.00
2022-09-15T06:03:21.759Z,59830.34
2022-09-15T06:05:48.174Z,59782.72
2022-09-15T06:08:14.549Z,59925.59
2022-09-15T06:10:40.920Z,59857.28
2022-09-15T06:13:07.384Z,59844.84
2022-09-15T06:15:34.091Z,59849.00
2022-09-15T06:18:00.471Z,59828.28
2022-09-15T06:20:26.907Z,59857.28
2022-09-15T06:22:54.072Z,59859.34
2022-09-15T06:25:20.503Z,59873.84
2022-09-15T06:27:49.249Z,59861.41
2022-09-15T06:30:15.717Z,59894.53
2022-09-15T06:32:47.400Z,60130.63
2022-09-15T06:35:15.117Z,59919.41
2022-09-15T06:37:41.496Z,59962.88
2022-09-15T06:40:08.722Z,59927.69
2022-09-15T06:42:35.184Z,59954.59
2022-09-15T06:45:01.901Z,60016.72
2022-09-15T06:47:33.705Z,60184.47
2022-09-15T06:50:00.828Z,59964.97
2022-09-15T06:52:27.894Z,60078.84
2022-09-15T06:54:54.331Z,60012.59
2022-09-15T06:57:20.751Z,60132.69
2022-09-15T06:59:47.192Z,60153.41
2022-09-15T07:02:13.820Z,60213.47
2022-09-15T07:04:40.309Z,60341.84
2022-09-15T07:07:06.692Z,60362.56
2022-09-15T07:09:33.072Z,60294.22
2022-09-15T07:11:59.487Z,60346.00
2022-09-15T07:14:25.847Z,60358.44
2022-09-15T07:16:52.232Z,60337.72
2022-09-15T07:19:18.903Z,60317.00
2022-09-15T07:21:47.619Z,60310.78
2022-09-15T07:24:14.462Z,60312.88
2022-09-15T07:26:41.414Z,60354.28
2022-09-15T07:29:07.814Z,60296.31
2022-09-15T07:31:36.448Z,60443.34
2022-09-15T07:34:03.196Z,60495.13
2022-09-15T07:36:30.236Z,60488.91
2022-09-15T07:38:57.018Z,60526.19
2022-09-15T07:41:28.849Z,60565.53
2022-09-15T07:43:57.466Z,60606.97
2022-09-15T07:46:25.256Z,60604.88
2022-09-15T07:48:53.737Z,60606.97
2022-09-15T07:51:20.246Z,60559.31
2022-09-15T07:53:47.982Z,60592.47
2022-09-15T07:56:15.358Z,60588.31
2022-09-15T07:58:41.977Z,60720.88
2022-09-15T08:01:11.630Z,60772.66
2022-09-15T08:03:42.716Z,60892.78
2022-09-15T08:06:10.397Z,60930.06
2022-09-15T08:08:38.746Z,60977.72
2022-09-15T08:11:10.110Z,61052.28
2022-09-15T08:13:36.841Z,61182.78
2022-09-15T08:16:08.649Z,60979.78
2022-09-15T08:18:35.507Z,60992.22
2022-09-15T08:21:06.434Z,61106.13
2022-09-15T08:23:32.748Z,61033.63
2022-09-15T08:25:59.565Z,61064.72
2022-09-15T08:28:26.332Z,61000.50
2022-09-15T08:31:01.138Z,61027.41
2022-09-15T08:33:28.829Z,61224.22
2022-09-15T08:35:59.991Z,61261.50
2022-09-15T08:38:26.393Z,61296.72
2022-09-15T08:40:58.737Z,61180.72
2022-09-15T08:43:26.889Z,61102.00
2022-09-15T08:46:04.641Z,61305.00
2022-09-15T08:48:35.278Z,61632.31
2022-09-15T08:51:06.719Z,61537.00
2022-09-15T08:53:39.927Z,61791.84
2022-09-15T08:56:15.595Z,61841.56
2022-09-15T08:58:41.989Z,61806.34
2022-09-15T09:01:17.805Z,61862.28
2022-09-15T09:04:05.878Z,61791.84
2022-09-15T09:06:40.679Z,61827.06
2022-09-15T09:09:34.693Z,62044.59
2022-09-15T09:12:20.625Z,61847.75
2022-09-15T09:15:16.051Z,61706.88
2022-09-15T09:17:48.638Z,61646.81
2022-09-15T09:20:39.897Z,61609.53
2022-09-15T09:23:12.774Z,61613.66
2022-09-15T09:25:40.653Z,61671.66
2022-09-15T09:28:18.334Z,61936.84
2022-09-15T09:30:44.848Z,62137.81
2022-09-15T09:33:30.279Z,62025.94
2022-09-15T09:36:00.053Z,62001.09
2022-09-15T09:38:37.415Z,62127.47
2022-09-15T09:41:15.563Z,62044.59
2022-09-15T09:43:43.237Z,62156.47
2022-09-15T09:46:16.329Z,61891.28
2022-09-15T09:48:55.157Z,61874.69
2022-09-15T09:51:35.512Z,61806.34
2022-09-15T09:54:16.043Z,61775.25
2022-09-15T09:56:44.132Z,61754.53
2022-09-15T09:59:38.482Z,61889.19
2022-09-15T10:02:12.148Z,61970.00
2022-09-15T10:04:49.598Z,62073.59
2022-09-15T10:07:19.421Z,61901.63
2022-09-15T10:09:59.083Z,61866.41
2022-09-15T10:12:30.454Z,61789.75
2022-09-15T10:14:59.835Z,61682.03
2022-09-15T10:17:38.176Z,61628.16
2022-09-15T10:20:06.641Z,61990.72
2022-09-15T10:22:35.185Z,61789.75
2022-09-15T10:25:03.881Z,61603.31
2022-09-15T10:27:32.980Z,61389.94
2022-09-15T10:30:12.503Z,61284.28
2022-09-15T10:32:39.046Z,61213.84
2022-09-15T10:35:11.446Z,61077.13
2022-09-15T10:37:47.359Z,60762.28
2022-09-15T10:40:20.079Z,60561.41
2022-09-15T10:42:53.998Z,60314.94
2022-09-15T10:45:26.128Z,60225.88
2022-09-15T10:48:11.256Z,60182.41
2022-09-15T10:50:40.530Z,60116.13
2022-09-15T10:53:19.046Z,60107.84
2022-09-15T10:56:07.229Z,60122.34
2022-09-15T10:59:00.895Z,60153.41
2022-09-15T11:01:33.198Z,60167.91
2022-09-15T11:04:25.081Z,60234.16
2022-09-15T11:06:58.363Z,60288.00
2022-09-15T11:09:27.059Z,60364.63
2022-09-15T11:12:08.037Z,60553.09
2022-09-15T11:14:37.320Z,60631.81
2022-09-15T11:17:24.911Z,60712.59
2022-09-15T11:20:07.725Z,60698.09
2022-09-15T11:22:49.573Z,60940.44
2022-09-15T11:25:23.100Z,61164.13
2022-09-15T11:27:54.082Z,61352.63
2022-09-15T11:30:21.636Z,61532.88
2022-09-15T11:32:58.938Z,61634.38
2022-09-15T11:35:34.609Z,61762.81
2022-09-15T11:38:30.500Z,61686.16
2022-09-15T11:41:16.367Z,61990.72
2022-09-15T11:44:21.369Z,61965.88
2022-09-15T11:46:57.293Z,61963.78
2022-09-15T11:49:30.167Z,61764.91
2022-09-15T11:52:22.454Z,61636.44
2022-09-15T11:54:55.313Z,61713.09
2022-09-15T11:57:26.879Z,61582.59
2022-09-15T12:00:07.726Z,61534.94
2022-09-15T12:02:42.685Z,61445.84
2022-09-15T12:05:17.509Z,61352.63
2022-09-15T12:07:53.212Z,61124.78
2022-09-15T12:10:27.437Z,61106.13
2022-09-15T12:12:54.045Z,61031.56
2022-09-15T12:15:27.183Z,60890.72
2022-09-15T12:18:27.642Z,60954.94
2022-09-15T12:21:08.170Z,60930.06
2022-09-15T12:24:00.333Z,61002.56
2022-09-15T12:26:26.989Z,61017.06
2022-09-15T12:28:57.963Z,61133.06
2022-09-15T12:31:26.517Z,61236.63
2022-09-15T12:34:03.783Z,61232.50
2022-09-15T12:36:46.011Z,61394.06
2022-09-15T12:39:20.786Z,61534.94
2022-09-15T12:41:53.197Z,61508.00
2022-09-15T12:44:30.842Z,61557.72
2022-09-15T12:46:58.158Z,61437.56
2022-09-15T12:49:30.131Z,61481.06
2022-09-15T12:51:57.264Z,61563.94
2022-09-15T12:54:28.275Z,61708.97
2022-09-15T12:56:55.163Z,61897.50
2022-09-15T12:59:25.607Z,62162.69
2022-09-15T13:01:53.640Z,62094.31
2022-09-15T13:04:23.637Z,61992.78
2022-09-15T13:07:21.499Z,61833.25
2022-09-15T13:09:59.718Z,61924.44
2022-09-15T13:12:36.659Z,62015.59
2022-09-15T13:15:05.646Z,62015.59
2022-09-15T13:17:33.494Z,62150.25
2022-09-15T13:20:07.157Z,62461.06
2022-09-15T13:22:41.280Z,62664.13
2022-09-15T13:25:11.217Z,62274.59
2022-09-15T13:27:40.661Z,62255.94
2022-09-15T13:30:34.891Z,62100.53
2022-09-15T13:40:12.893Z,62011.44
2022-09-15T13:43:01.594Z,62268.38
2022-09-15T13:46:02.355Z,62293.22
2022-09-15T13:48:47.174Z,62297.38
2022-09-15T13:51:27.262Z,62183.41
2022-09-15T13:54:03.436Z,62079.81
2022-09-15T13:56:33.594Z,62083.97
2022-09-15T13:59:08.373Z,62061.16
2022-09-15T14:01:40.030Z,62042.53
2022-09-15T14:04:14.806Z,62040.44
2022-09-15T14:06:44.622Z,62380.25
2022-09-15T14:09:27.446Z,61978.28
2022-09-15T14:11:59.454Z,62032.16
2022-09-15T14:14:29.583Z,61986.56
2022-09-15T14:16:57.643Z,61874.69
2022-09-15T14:19:33.414Z,61798.03
2022-09-15T14:22:26.306Z,61901.63
2022-09-15T14:24:54.486Z,61833.25
2022-09-15T14:27:27.634Z,61862.28
2022-09-15T14:29:55.665Z,61978.28
2022-09-15T14:32:29.101Z,62034.22
2022-09-15T14:34:59.726Z,62185.47
2022-09-15T14:37:38.128Z,62282.88
2022-09-15T14:40:23.838Z,62363.69
2022-09-15T14:42:52.433Z,62666.22
2022-09-15T14:48:15.742Z,63039.22
2022-09-15T14:50:44.800Z,62827.84
2022-09-15T14:53:19.080Z,62794.69
2022-09-15T14:55:57.224Z,62968.75
2022-09-15T14:58:31.584Z,63012.28
2022-09-15T15:01:02.252Z,62678.66
2022-09-15T15:03:44.051Z,62885.88
2022-09-15T15:06:29.094Z,62852.72
2022-09-15T15:09:18.181Z,62829.91
2022-09-15T15:11:44.613Z,63186.38
2022-09-15T15:14:12.278Z,63173.94
2022-09-15T15:16:50.266Z,62660.00
2022-09-15T15:19:38.466Z,62465.22
2022-09-15T15:22:16.558Z,62326.38
2022-09-15T15:24:44.661Z,62753.25
2022-09-15T15:27:32.943Z,62751.16
2022-09-15T15:30:24.579Z,62226.94
2022-09-15T15:32:51.835Z,61974.16
2022-09-15T15:35:19.339Z,61880.91
2022-09-15T15:37:47.101Z,61644.75
2022-09-15T15:40:20.853Z,61555.66
2022-09-15T15:42:57.822Z,61468.66
2022-09-15T15:45:29.885Z,61383.72
2022-09-15T15:47:56.889Z,61236.63
2022-09-15T15:50:26.140Z,61240.78
2022-09-15T15:52:52.943Z,61234.56
2022-09-15T15:55:36.667Z,61265.63
2022-09-15T15:58:03.223Z,61294.63
2022-09-15T16:00:36.189Z,61292.56
2022-09-15T16:03:02.567Z,61251.13
2022-09-15T16:05:29.454Z,61232.50
2022-09-15T16:07:56.919Z,61242.84
2022-09-15T16:10:24.725Z,61253.22
2022-09-15T16:12:51.957Z,61230.41
2022-09-15T16:15:20.293Z,61155.84
2022-09-15T16:17:48.927Z,61224.22
2022-09-15T16:20:16.768Z,61356.78
2022-09-15T16:22:43.607Z,61331.94
2022-09-15T16:25:30.373Z,61157.91
2022-09-15T16:27:56.801Z,61079.22
2022-09-15T16:30:23.223Z,61334.00
2022-09-15T16:32:49.673Z,60979.78
2022-09-15T16:35:28.083Z,60994.28
2022-09-15T16:37:54.545Z,61033.63
2022-09-15T16:40:21.130Z,60998.44
2022-09-15T16:42:48.502Z,61037.78
2022-09-15T16:45:23.284Z,61182.78
2022-09-15T16:47:49.678Z,60905.22
2022-09-15T16:50:16.131Z,60884.50
2022-09-15T16:52:42.789Z,60845.16
2022-09-15T16:55:35.868Z,60963.22
2022-09-15T16:58:03.946Z,60859.66
2022-09-15T17:00:32.236Z,60787.16
2022-09-15T17:02:58.895Z,60807.88
2022-09-15T17:05:48.640Z,60735.38
2022-09-15T17:08:15.696Z,60749.88
2022-09-15T17:10:42.622Z,60710.50
2022-09-15T17:13:12.171Z,60747.81
2022-09-15T17:15:40.143Z,60760.22
2022-09-15T17:18:07.908Z,60656.66
2022-09-15T17:20:39.131Z,60716.72
2022-09-15T17:23:31.023Z,60667.03
2022-09-15T17:25:59.879Z,60681.53
2022-09-15T17:28:28.767Z,60633.88
2022-09-15T17:31:03.786Z,60691.88
2022-09-15T17:33:31.419Z,60638.03
2022-09-15T17:35:58.823Z,60594.53
2022-09-15T17:38:25.537Z,60476.47
2022-09-15T17:40:52.834Z,60596.59
2022-09-15T17:43:22.175Z,60522.03
2022-09-15T17:45:49.746Z,60544.81
2022-09-15T17:48:17.027Z,60495.13
2022-09-15T17:50:45.052Z,60495.13
2022-09-15T17:53:13.328Z,60519.97
2022-09-15T17:55:40.028Z,60470.25
2022-09-15T17:58:08.699Z,60511.69
2022-09-15T18:00:37.775Z,60449.56
2022-09-15T18:03:28.160Z,60457.84
2022-09-15T18:05:56.342Z,60401.91
2022-09-15T18:08:22.750Z,60406.06
2022-09-15T18:10:49.598Z,60439.19
2022-09-15T18:13:21.556Z,60461.97
2022-09-15T18:15:51.422Z,60445.41
2022-09-15T18:18:27.940Z,60424.69
2022-09-15T18:20:55.719Z,60379.13
2022-09-15T18:23:24.313Z,60358.44
2022-09-15T18:25:51.355Z,60399.84
2022-09-15T18:28:18.538Z,60358.44
2022-09-15T18:30:47.564Z,60397.78
2022-09-15T18:33:24.767Z,60343.94
2022-09-15T18:35:53.553Z,60381.22
2022-09-15T18:38:20.596Z,60335.66
2022-09-15T18:40:49.245Z,60346.00
2022-09-15T18:43:17.257Z,60310.78
2022-09-15T18:45:44.103Z,60244.53
2022-09-15T18:48:12.781Z,60254.88
2022-09-15T18:50:40.628Z,60323.22
2022-09-15T18:53:07.322Z,60246.59
2022-09-15T18:55:33.867Z,60217.59
2022-09-15T18:58:01.300Z,60174.13
2022-09-15T19:00:29.009Z,60213.47
2022-09-15T19:02:57.150Z,60207.25
2022-09-15T19:05:23.718Z,60219.66
2022-09-15T19:07:50.301Z,60217.59
2022-09-15T19:10:17.287Z,60205.19
2022-09-15T19:12:44.116Z,60217.59
2022-09-15T19:15:12.075Z,60238.31
2022-09-15T19:17:39.345Z,60234.16
2022-09-15T19:20:07.408Z,60246.59
2022-09-15T19:22:34.160Z,60379.13
2022-09-15T19:25:00.699Z,60234.16
2022-09-15T19:27:27.395Z,60190.69
2022-09-15T19:29:53.786Z,60211.38
2022-09-15T19:32:20.983Z,60221.75
2022-09-15T19:34:48.062Z,60134.75
2022-09-15T19:37:18.825Z,60120.28
2022-09-15T19:39:45.717Z,60124.41
2022-09-15T19:42:12.664Z,60035.38
2022-09-15T19:44:39.289Z,60022.94
2022-09-15T19:47:06.227Z,59956.66
2022-09-15T19:49:32.704Z,59975.31
2022-09-15T19:51:59.133Z,59977.38
2022-09-15T19:54:27.420Z,60029.16
2022-09-15T19:57:02.419Z,59998.09
2022-09-15T19:59:31.527Z,60029.16
2022-09-15T20:01:58.350Z,60095.41
2022-09-15T20:04:27.570Z,60072.63
2022-09-15T20:06:53.987Z,60066.44
2022-09-15T20:09:20.371Z,59944.25
2022-09-15T20:11:46.858Z,60027.06
2022-09-15T20:14:13.743Z,60035.38
2022-09-15T20:16:43.699Z,60031.22
2022-09-15T20:19:10.335Z,60014.66
2022-09-15T20:21:49.951Z,60105.78
2022-09-15T20:24:17.588Z,60056.06
2022-09-15T20:26:43.973Z,60076.78
2022-09-15T20:29:10.830Z,60029.16
2022-09-15T20:31:37.811Z,60008.44
2022-09-15T20:34:04.234Z,59969.09
2022-09-15T20:36:36.631Z,60010.50
2022-09-15T20:39:09.177Z,60089.19
2022-09-15T20:41:35.802Z,60006.38
2022-09-15T20:44:02.502Z,60006.38
2022-09-15T20:46:29.344Z,60039.50
2022-09-15T20:48:58.885Z,60207.25
2022-09-15T20:51:27.851Z,59977.38
2022-09-15T20:53:55.965Z,59919.41
2022-09-15T20:56:26.871Z,59944.25
2022-09-15T20:58:54.492Z,59911.13
2022-09-15T21:01:27.095Z,60020.88
2022-09-15T21:03:56.534Z,59996.03
2022-09-15T21:06:26.882Z,59954.59
2022-09-15T21:08:55.537Z,59900.75
2022-09-15T21:11:23.303Z,59836.56
2022-09-15T21:13:55.998Z,59836.56
2022-09-15T21:19:32.474Z,59809.66
2022-09-15T21:21:59.400Z,59737.16
2022-09-15T21:24:25.787Z,59681.25
2022-09-15T21:27:10.823Z,59786.88
2022-09-15T21:29:37.226Z,59733.03
2022-09-15T21:32:03.927Z,59730.97
2022-09-15T21:34:31.619Z,59749.59
2022-09-15T21:37:00.923Z,59679.19
2022-09-15T21:39:27.500Z,60124.41
2022-09-15T21:41:54.100Z,59662.63
2022-09-15T21:44:22.942Z,59691.63
2022-09-15T21:46:49.337Z,59693.69
2022-09-15T21:49:17.921Z,59675.06
2022-09-15T21:51:44.545Z,59675.06
2022-09-15T21:54:11.238Z,59683.34
2022-09-15T21:56:37.744Z,59656.41
2022-09-15T21:59:04.343Z,59656.41
2022-09-15T22:01:32.100Z,59656.41
2022-09-15T22:04:00.708Z,59637.78
2022-09-15T22:06:31.571Z,59695.75
2022-09-15T22:08:59.707Z,59689.53
2022-09-15T22:11:26.084Z,59646.06
2022-09-15T22:13:52.519Z,59654.34
2022-09-15T22:16:20.997Z,59615.00
2022-09-15T22:18:47.897Z,59631.56
2022-09-15T22:21:19.684Z,59641.91
2022-09-15T22:23:47.351Z,59610.88
2022-09-15T22:26:17.519Z,59579.81
2022-09-15T22:28:44.057Z,59625.34
2022-09-15T22:31:14.285Z,59699.91
2022-09-15T22:33:41.287Z,59600.50
2022-09-15T22:36:15.786Z,59567.38
2022-09-15T22:38:42.889Z,59610.88
2022-09-15T22:41:12.038Z,59604.66
2022-09-15T22:43:39.848Z,59594.28
2022-09-15T22:46:06.741Z,59619.16
2022-09-15T22:48:33.458Z,59600.50
2022-09-15T22:50:59.957Z,59565.31
2022-09-15T22:53:26.663Z,59548.75
2022-09-15T22:56:10.167Z,59561.16
2022-09-15T22:58:37.024Z,59542.53
2022-09-15T23:01:09.911Z,59478.34
2022-09-15T23:03:37.006Z,59542.53
2022-09-15T23:06:05.349Z,59536.31
2022-09-15T23:08:32.240Z,59459.72
2022-09-15T23:11:07.672Z,59496.97
2022-09-15T23:13:34.116Z,59488.69
2022-09-15T23:16:00.939Z,59492.84
2022-09-15T23:18:27.613Z,59488.69
2022-09-15T23:21:01.542Z,59540.47
2022-09-15T23:23:28.271Z,59480.41
2022-09-15T23:25:55.284Z,59557.03
2022-09-15T23:28:22.078Z,59517.69
2022-09-15T23:30:58.233Z,59563.25
2022-09-15T23:33:25.938Z,59546.66
2022-09-15T23:35:52.583Z,59952.53
2022-09-15T23:38:20.088Z,59534.25
2022-09-15T23:40:47.321Z,59451.44
2022-09-15T23:43:14.401Z,59484.56
2022-09-15T23:45:42.024Z,59654.34
2022-09-15T23:48:08.810Z,59422.44
2022-09-15T23:50:36.575Z,59476.28
2022-09-15T23:53:03.601Z,59557.03
2022-09-15T23:55:30.147Z,59544.59
2022-09-15T23:57:56.797Z,59528.03
